createdAt,value
2018-07-06T00:01:36.099Z,27.32
2018-07-06T00:06:38.574Z,30.43
2018-07-06T00:11:41.037Z,29.53
2018-07-06T00:16:43.423Z,27.10
2018-07-06T00:21:45.681Z,34.70
2018-07-06T00:26:48.042Z,27.93
2018-07-06T00:31:50.711Z,29.17
2018-07-06T00:36:53.079Z,29.50
2018-07-06T00:41:55.435Z,31.95
2018-07-06T00:46:57.879Z,29.90
2018-07-06T00:52:00.263Z,32.93
2018-07-06T00:57:02.587Z,34.93
2018-07-06T01:02:04.982Z,32.23
2018-07-06T01:07:07.447Z,38.60
2018-07-06T01:12:15.695Z,32.20
2018-07-06T01:17:18.243Z,32.60
2018-07-06T01:22:20.789Z,33.73
2018-07-06T01:27:23.342Z,38.20
2018-07-06T01:32:25.713Z,35.43
2018-07-06T01:37:28.152Z,40.33
2018-07-06T01:42:30.531Z,37.43
2018-07-06T01:47:32.943Z,45.63
2018-07-06T01:52:35.379Z,40.53
2018-07-06T01:57:37.705Z,38.33
2018-07-06T02:02:40.476Z,38.80
2018-07-06T02:07:42.839Z,40.73
2018-07-06T02:12:45.199Z,42.57
2018-07-06T02:17:47.570Z,41.63
2018-07-06T02:22:49.968Z,43.37
2018-07-06T02:27:52.732Z,47.67
2018-07-06T02:32:55.393Z,41.50
2018-07-06T02:37:58.064Z,43.07
2018-07-06T02:43:00.564Z,41.93
2018-07-06T02:48:03.052Z,46.37
2018-07-06T02:53:05.605Z,44.60
2018-07-06T02:58:08.061Z,38.47
2018-07-06T03:03:10.722Z,36.87
2018-07-06T03:08:13.390Z,38.83
2018-07-06T03:13:15.772Z,39.30
2018-07-06T03:18:18.097Z,34.27
2018-07-06T03:23:20.785Z,32.48
2018-07-06T03:28:23.382Z,30.83
2018-07-06T03:33:25.795Z,37.25
2018-07-06T03:38:28.183Z,34.27
2018-07-06T03:43:30.554Z,34.00
2018-07-06T03:48:32.942Z,36.67
2018-07-06T03:53:35.503Z,32.67
2018-07-06T03:58:37.844Z,33.23
2018-07-06T04:03:40.213Z,30.53
2018-07-06T04:08:42.646Z,30.17
2018-07-06T04:13:45.116Z,31.97
2018-07-06T04:18:47.683Z,30.40
2018-07-06T04:23:50.084Z,29.63
2018-07-06T04:28:52.790Z,28.93
2018-07-06T04:33:55.348Z,27.17
2018-07-06T04:38:57.939Z,26.02
2018-07-06T04:44:00.285Z,26.13
2018-07-06T04:49:02.719Z,27.05
2018-07-06T04:54:05.051Z,24.40
2018-07-06T04:59:07.613Z,27.80
2018-07-06T05:04:10.834Z,24.70
2018-07-06T05:09:13.410Z,25.43
2018-07-06T05:14:15.875Z,24.43
2018-07-06T05:19:18.254Z,24.87
2018-07-06T05:24:20.616Z,24.97
2018-07-06T05:29:22.968Z,26.50
2018-07-06T05:34:25.414Z,25.27
2018-07-06T05:39:27.776Z,24.50
2018-07-06T05:44:30.251Z,24.37
2018-07-06T05:49:32.699Z,23.73
2018-07-06T05:54:35.125Z,25.10
2018-07-06T05:59:37.699Z,22.77
2018-07-06T06:04:40.191Z,22.33
2018-07-06T06:09:36.995Z,21.00
2018-07-06T06:14:33.901Z,21.03
2018-07-06T06:19:30.647Z,22.50
2018-07-06T06:24:27.390Z,22.87
2018-07-06T06:29:24.250Z,20.73
2018-07-06T06:34:21.261Z,20.80
2018-07-06T06:39:18.018Z,21.47
2018-07-06T06:44:14.823Z,21.40
2018-07-06T06:49:11.780Z,20.20
2018-07-06T06:54:08.598Z,22.40
2018-07-06T06:59:05.379Z,22.03
2018-07-06T07:04:02.251Z,21.82
2018-07-06T07:08:59.143Z,21.05
2018-07-06T07:13:56.070Z,22.43
2018-07-06T07:18:52.808Z,23.20
2018-07-06T07:23:49.695Z,22.02
2018-07-06T07:28:46.620Z,22.80
2018-07-06T07:33:43.430Z,22.77
2018-07-06T07:38:40.364Z,23.20
2018-07-06T07:43:37.214Z,21.60
2018-07-06T07:48:34.104Z,23.12
2018-07-06T07:53:36.777Z,21.90
2018-07-06T07:58:33.648Z,21.75
2018-07-06T08:03:30.547Z,19.37
2018-07-06T08:08:27.381Z,18.12
2018-07-06T08:13:24.321Z,17.32
2018-07-06T08:18:21.121Z,20.52
2018-07-06T08:23:18.074Z,18.35
2018-07-06T08:28:15.158Z,20.50
2018-07-06T08:33:11.982Z,21.48
2018-07-06T08:38:08.784Z,21.93
2018-07-06T08:43:06.184Z,22.58
2018-07-06T08:48:02.956Z,21.90
2018-07-06T08:52:59.724Z,20.62
2018-07-06T08:57:57.654Z,21.12
2018-07-06T09:02:54.390Z,20.15
2018-07-06T09:07:51.134Z,19.52
2018-07-06T09:12:48.961Z,21.85
2018-07-06T09:17:45.740Z,22.42
2018-07-06T09:22:42.698Z,21.30
2018-07-06T09:27:39.490Z,22.00
2018-07-06T09:32:36.251Z,24.43
2018-07-06T09:37:33.042Z,22.00
2018-07-06T09:42:29.895Z,22.15
2018-07-06T09:47:26.675Z,22.27
2018-07-06T09:52:23.497Z,22.65
2018-07-06T09:57:20.343Z,26.50
2018-07-06T10:02:17.209Z,27.55
2018-07-06T10:07:14.047Z,25.92
2018-07-06T10:12:10.880Z,24.25
2018-07-06T10:17:07.740Z,22.42
2018-07-06T10:22:04.959Z,22.20
2018-07-06T10:27:01.727Z,21.85
2018-07-06T10:32:03.071Z,19.50
2018-07-06T10:36:59.870Z,19.98
2018-07-06T10:41:56.733Z,17.37
2018-07-06T10:46:53.547Z,16.57
2018-07-06T10:51:50.298Z,14.75
2018-07-06T10:56:47.193Z,14.87
2018-07-06T11:01:44.106Z,14.85
2018-07-06T11:06:40.920Z,14.90
2018-07-06T11:11:37.766Z,16.37
2018-07-06T11:16:34.531Z,15.23
2018-07-06T11:21:31.310Z,12.90
2018-07-06T11:26:28.055Z,12.63
2018-07-06T11:31:24.855Z,13.35
2018-07-06T11:36:21.755Z,11.05
2018-07-06T11:41:18.522Z,10.58
2018-07-06T11:46:15.343Z,10.30
2018-07-06T11:51:12.076Z,10.13
2018-07-06T11:56:09.175Z,9.30
2018-07-06T12:01:06.120Z,9.00
2018-07-06T12:06:02.950Z,10.10
2018-07-06T12:10:59.728Z,15.58
2018-07-06T12:15:56.506Z,7.12
2018-07-06T12:20:53.409Z,9.33
2018-07-06T12:25:50.155Z,7.25
2018-07-06T12:30:47.120Z,7.25
2018-07-06T12:35:43.924Z,5.87
2018-07-06T12:40:40.867Z,7.17
2018-07-06T12:45:37.711Z,7.33
2018-07-06T12:50:34.553Z,6.53
2018-07-06T12:55:31.954Z,6.10
2018-07-06T13:00:28.755Z,4.60
2018-07-06T13:05:32.230Z,4.17
2018-07-06T13:10:29.149Z,4.75
2018-07-06T13:15:26.043Z,4.40
2018-07-06T13:20:22.838Z,4.42
2018-07-06T13:25:19.737Z,3.67
2018-07-06T13:30:16.727Z,3.80
2018-07-06T13:35:13.513Z,3.47
2018-07-06T13:40:10.437Z,2.83
2018-07-06T13:45:07.227Z,6.53
2018-07-06T13:50:04.818Z,7.30
2018-07-06T13:55:01.630Z,2.72
2018-07-06T13:59:58.424Z,5.28
2018-07-06T14:04:55.191Z,2.80
2018-07-06T14:09:52.047Z,7.78
2018-07-06T14:14:48.855Z,2.50
2018-07-06T14:19:45.617Z,2.83
2018-07-06T14:24:42.535Z,3.35
2018-07-06T14:29:39.653Z,2.62
2018-07-06T14:34:36.484Z,3.08
2018-07-06T14:39:33.223Z,3.27
2018-07-06T14:44:30.634Z,2.95
2018-07-06T14:49:27.397Z,2.70
2018-07-06T14:59:57.502Z,2.37
2018-07-06T15:04:54.364Z,2.25
2018-07-06T15:09:51.180Z,3.60
2018-07-06T15:14:48.001Z,2.10
2018-07-06T15:19:44.812Z,1.87
2018-07-06T15:24:41.675Z,2.87
2018-07-06T15:29:38.593Z,1.92
2018-07-06T15:34:35.703Z,1.90
2018-07-06T15:39:32.513Z,5.60
2018-07-06T15:44:29.364Z,6.00
2018-07-06T15:49:25.030Z,3.55
2018-07-06T15:54:20.663Z,2.00
2018-07-06T15:59:16.327Z,2.25
2018-07-06T16:04:12.112Z,3.72
2018-07-06T16:09:07.750Z,3.08
2018-07-06T16:14:03.416Z,3.50
2018-07-06T16:18:59.073Z,5.78
2018-07-06T16:23:54.733Z,2.55
2018-07-06T16:28:50.392Z,1.90
2018-07-06T16:33:46.805Z,3.37
2018-07-06T16:38:43.085Z,3.52
2018-07-06T16:43:39.573Z,1.65
2018-07-06T16:48:36.707Z,2.77
2018-07-06T16:53:33.557Z,1.72
2018-07-06T16:58:30.584Z,1.95
2018-07-06T17:03:27.410Z,6.30
2018-07-06T17:08:24.278Z,9.28
2018-07-06T17:13:21.011Z,2.10
2018-07-06T17:18:18.607Z,2.72
2018-07-06T17:23:15.519Z,2.47
2018-07-06T17:28:12.393Z,4.72
2018-07-06T17:33:09.282Z,3.12
2018-07-06T17:38:06.277Z,4.12
2018-07-06T17:43:03.014Z,2.00
2018-07-06T17:47:59.825Z,8.38
2018-07-06T17:52:56.647Z,3.70
2018-07-06T17:57:53.452Z,3.45
2018-07-06T18:02:50.295Z,5.47
2018-07-06T18:07:47.166Z,4.08
2018-07-06T18:12:44.041Z,4.92
2018-07-06T18:17:40.917Z,6.73
2018-07-06T18:22:37.821Z,4.55
2018-07-06T18:27:34.693Z,4.03
2018-07-06T18:32:31.717Z,4.05
2018-07-06T18:37:28.572Z,4.90
2018-07-06T18:42:25.390Z,3.98
2018-07-06T18:47:22.212Z,3.30
2018-07-06T18:52:19.253Z,3.20
2018-07-06T18:57:16.160Z,10.15
2018-07-06T19:02:13.073Z,4.50
2018-07-06T19:07:10.209Z,3.85
2018-07-06T19:12:07.029Z,3.30
2018-07-06T19:17:03.943Z,4.75
2018-07-06T19:22:00.935Z,4.00
2018-07-06T19:26:59.126Z,7.10
2018-07-06T19:31:56.250Z,11.63
2018-07-06T19:36:53.459Z,4.58
2018-07-06T19:41:50.202Z,6.53
2018-07-06T19:46:47.152Z,5.58
2018-07-06T19:51:44.053Z,4.50
2018-07-06T19:56:41.193Z,4.95
2018-07-06T20:01:38.080Z,7.22
2018-07-06T20:06:35.142Z,8.08
2018-07-06T20:11:31.910Z,10.72
2018-07-06T20:16:29.339Z,5.97
2018-07-06T20:21:28.663Z,4.20
2018-07-06T20:26:25.747Z,5.12
2018-07-06T20:31:23.400Z,5.78
2018-07-06T20:36:20.467Z,6.33
2018-07-06T20:41:17.411Z,6.35
2018-07-06T20:46:14.591Z,5.35
2018-07-06T20:51:11.331Z,4.78
2018-07-06T20:56:08.210Z,5.08
2018-07-06T21:01:05.584Z,4.78
2018-07-06T21:06:02.550Z,5.58
2018-07-06T21:10:59.364Z,6.20
2018-07-06T21:15:56.490Z,5.80
2018-07-06T21:20:53.479Z,5.27
2018-07-06T21:25:50.802Z,6.40
2018-07-06T21:30:48.027Z,6.22
2018-07-06T21:35:45.342Z,6.07
2018-07-06T21:40:43.324Z,5.47
2018-07-06T21:45:40.113Z,6.20
2018-07-06T21:50:37.580Z,7.43
2018-07-06T21:55:34.418Z,8.20
2018-07-06T22:00:37.183Z,13.27
2018-07-06T22:05:34.106Z,6.90
2018-07-06T22:10:31.457Z,7.00
2018-07-06T22:15:46.648Z,6.73
2018-07-06T22:20:44.501Z,7.13
2018-07-06T22:25:41.908Z,8.40
2018-07-06T22:30:38.886Z,7.77
2018-07-06T22:35:35.867Z,8.57
2018-07-06T22:40:32.777Z,14.23
2018-07-06T22:45:29.958Z,8.67
2018-07-06T22:50:26.737Z,8.63
2018-07-06T22:55:23.677Z,8.33
2018-07-06T23:00:20.488Z,9.20
2018-07-06T23:05:19.174Z,8.90
2018-07-06T23:10:15.845Z,11.37
2018-07-06T23:15:12.861Z,9.10
2018-07-06T23:20:09.663Z,12.17
2018-07-06T23:25:06.875Z,11.10
2018-07-06T23:30:04.339Z,9.27
2018-07-06T23:35:01.455Z,8.97
2018-07-06T23:39:58.521Z,10.63
2018-07-06T23:44:55.548Z,9.10
2018-07-06T23:49:52.311Z,9.93
2018-07-06T23:54:49.491Z,10.50
2018-07-06T23:59:46.224Z,11.10
